Flugplatz Kehl-Sundheim (EDSK)

Hier findest Du alle Informationen zum Flugplatz Kehl-Sundheim (EDSK).

Informationen für Piloten zum Flugplatz Kehl-Sundheim

Hier findest Du alle relevanten Informationen, die Du als Pilot benötigst, um Kehl-Sundheim anzufliegen.

Flugplatz: Kehl-Sundheim ICAO-Code: EDSK
Frequenz Turm: 122,750 Mhz GAFOR Gebiet: 51
Frequenz Ground: 122,750 Mhz Mogas: ja
Platzrunde: SE 1300 ft Landegebühr: -
Platzhöhe: - Sunrise: 07:06 Uhr UTC
Pisten: 03/21 - 475 m x 30 m, GRAS Sunset: 15:35 Uhr UTC

Flugwetter am Flugplatz Kehl-Sundheim

Die METAR Information stammen aus EDTL (21.12 km entfernt).

METAR Code:
2022/11/06 10:20
EDTL 061020Z 21006KT 170V250 CAVOK 09/04 Q1016

Temperatur: 1,7 °C Niederschlag: - Wind: 3,0 kt
Temperatur (min.): 0,4 °C Luftdruck: 1005 hPa Windrichtung: 340 °
Temperatur (max.): 2,1 °C Luftfeuchtigkeit: 87 % Bewölkung: 8/8

Flugschulen am Flugplatz Kehl-Sundheim

Am Flugplatz Kehl-Sundheim gibt es 2 Flugschulen.

Benachbarte Flugplätze und Flugschulen

Es gibt 6 weitere Flugplätze in einem Umkreis von 50 km um den Flugplatz Kehl-Sundheim.

Jetzt anmelden

Passwort vergessen

Umfrage Archiv

Sendet Ihr ADS-B und/oder FLARM?

Ja
84.6 %
Nein
15.4 %
Stimmen: 254 | Diskussion
Anzeige: Roland Aircraft
Statistik Alle Mitglieder

Aktuell sind 64 Besucher online.

Anzeige: ULPower Aero Engines Anzeige: EasyVFR